sensor_id;sensor_type;location;lat;lon;timestamp;temperature;humidity
29713;DHT22;16623;53.632;10.016;2022-07-29T00:01:33;13.90;99.90
29713;DHT22;16623;53.632;10.016;2022-07-29T00:03:58;13.90;99.90
29713;DHT22;16623;53.632;10.016;2022-07-29T00:06:24;13.80;99.90
29713;DHT22;16623;53.632;10.016;2022-07-29T00:08:51;13.70;99.90
29713;DHT22;16623;53.632;10.016;2022-07-29T00:11:16;13.70;99.90
29713;DHT22;16623;53.632;10.016;2022-07-29T00:13:42;13.70;99.90
29713;DHT22;16623;53.632;10.016;2022-07-29T00:16:07;13.60;99.90
29713;DHT22;16623;53.632;10.016;2022-07-29T00:18:32;13.70;99.90
29713;DHT22;16623;53.632;10.016;2022-07-29T00:20:58;13.70;99.90
29713;DHT22;16623;53.632;10.016;2022-07-29T00:23:23;13.70;99.90
29713;DHT22;16623;53.632;10.016;2022-07-29T00:25:49;13.70;99.90
29713;DHT22;16623;53.632;10.016;2022-07-29T00:28:14;13.60;99.90
29713;DHT22;16623;53.632;10.016;2022-07-29T00:30:40;13.70;99.90
29713;DHT22;16623;53.632;10.016;2022-07-29T00:33:08;13.70;99.90
29713;DHT22;16623;53.632;10.016;2022-07-29T00:35:34;13.70;99.90
29713;DHT22;16623;53.632;10.016;2022-07-29T00:38:15;13.80;99.90
29713;DHT22;16623;53.632;10.016;2022-07-29T00:40:42;13.80;99.90
29713;DHT22;16623;53.632;10.016;2022-07-29T00:43:08;13.80;99.90
29713;DHT22;16623;53.632;10.016;2022-07-29T00:45:33;13.80;99.90
29713;DHT22;16623;53.632;10.016;2022-07-29T00:47:59;13.70;99.90
29713;DHT22;16623;53.632;10.016;2022-07-29T00:50:25;13.70;99.90
29713;DHT22;16623;53.632;10.016;2022-07-29T00:52:50;13.70;99.90
29713;DHT22;16623;53.632;10.016;2022-07-29T00:55:17;13.70;99.90
29713;DHT22;16623;53.632;10.016;2022-07-29T00:57:43;13.70;99.90
29713;DHT22;16623;53.632;10.016;2022-07-29T01:00:09;13.70;99.90
29713;DHT22;16623;53.632;10.016;2022-07-29T01:02:36;13.70;99.90
29713;DHT22;16623;53.632;10.016;2022-07-29T01:05:02;13.60;99.90
29713;DHT22;16623;53.632;10.016;2022-07-29T01:07:28;13.40;99.90
29713;DHT22;16623;53.632;10.016;2022-07-29T01:09:55;13.30;99.90
29713;DHT22;16623;53.632;10.016;2022-07-29T01:12:24;13.40;99.90
29713;DHT22;16623;53.632;10.016;2022-07-29T01:14:50;13.30;99.90
29713;DHT22;16623;53.632;10.016;2022-07-29T01:17:26;13.20;99.90
29713;DHT22;16623;53.632;10.016;2022-07-29T01:25:46;13.10;99.90
29713;DHT22;16623;53.632;10.016;2022-07-29T01:30:39;13.00;99.90
29713;DHT22;16623;53.632;10.016;2022-07-29T01:33:07;13.00;99.90
29713;DHT22;16623;53.632;10.016;2022-07-29T01:35:38;13.00;99.90
29713;DHT22;16623;53.632;10.016;2022-07-29T01:38:12;13.00;99.90
29713;DHT22;16623;53.632;10.016;2022-07-29T01:40:43;12.90;99.90
29713;DHT22;16623;53.632;10.016;2022-07-29T01:43:11;12.80;99.90
29713;DHT22;16623;53.632;10.016;2022-07-29T01:45:38;12.80;99.90
29713;DHT22;16623;53.632;10.016;2022-07-29T01:50:42;12.80;99.90
29713;DHT22;16623;53.632;10.016;2022-07-29T01:53:10;12.80;99.90
29713;DHT22;16623;53.632;10.016;2022-07-29T01:55:41;12.80;99.90
29713;DHT22;16623;53.632;10.016;2022-07-29T01:58:07;12.80;99.90
29713;DHT22;16623;53.632;10.016;2022-07-29T02:00:34;12.80;99.90
29713;DHT22;16623;53.632;10.016;2022-07-29T02:03:05;12.70;99.90
29713;DHT22;16623;53.632;10.016;2022-07-29T02:05:33;12.70;99.90
29713;DHT22;16623;53.632;10.016;2022-07-29T02:08:00;12.70;99.90
29713;DHT22;16623;53.632;10.016;2022-07-29T02:10:26;12.70;99.90
29713;DHT22;16623;53.632;10.016;2022-07-29T02:12:53;12.70;99.90
29713;DHT22;16623;53.632;10.016;2022-07-29T02:15:19;12.60;99.90
29713;DHT22;16623;53.632;10.016;2022-07-29T02:17:46;12.60;99.90
29713;DHT22;16623;53.632;10.016;2022-07-29T02:20:14;12.50;99.90
29713;DHT22;16623;53.632;10.016;2022-07-29T02:22:41;12.60;99.90
29713;DHT22;16623;53.632;10.016;2022-07-29T02:25:07;12.60;99.90
29713;DHT22;16623;53.632;10.016;2022-07-29T02:27:34;12.60;99.90
29713;DHT22;16623;53.632;10.016;2022-07-29T02:30:00;12.60;99.90
29713;DHT22;16623;53.632;10.016;2022-07-29T02:32:26;12.60;99.90
29713;DHT22;16623;53.632;10.016;2022-07-29T02:34:52;12.60;99.90
29713;DHT22;16623;53.632;10.016;2022-07-29T02:37:18;12.60;99.90
29713;DHT22;16623;53.632;10.016;2022-07-29T02:39:45;12.60;99.90
29713;DHT22;16623;53.632;10.016;2022-07-29T02:42:16;12.50;99.90
29713;DHT22;16623;53.632;10.016;2022-07-29T02:44:43;12.60;99.90
29713;DHT22;16623;53.632;10.016;2022-07-29T02:47:16;12.60;99.90
29713;DHT22;16623;53.632;10.016;2022-07-29T02:50:04;12.60;99.90
29713;DHT22;16623;53.632;10.016;2022-07-29T02:52:40;12.60;99.90
29713;DHT22;16623;53.632;10.016;2022-07-29T02:57:54;12.60;99.90
29713;DHT22;16623;53.632;10.016;2022-07-29T03:00:23;12.60;99.90
29713;DHT22;16623;53.632;10.016;2022-07-29T03:02:52;12.60;99.90
29713;DHT22;16623;53.632;10.016;2022-07-29T03:05:19;12.60;99.90
29713;DHT22;16623;53.632;10.016;2022-07-29T03:07:46;12.60;99.90
29713;DHT22;16623;53.632;10.016;2022-07-29T03:10:13;12.70;99.90
29713;DHT22;16623;53.632;10.016;2022-07-29T03:12:39;12.70;99.90
29713;DHT22;16623;53.632;10.016;2022-07-29T03:15:05;12.70;99.90
29713;DHT22;16623;53.632;10.016;2022-07-29T03:17:31;12.70;99.90
29713;DHT22;16623;53.632;10.016;2022-07-29T03:19:56;12.80;99.90
29713;DHT22;16623;53.632;10.016;2022-07-29T03:22:23;12.80;99.90
29713;DHT22;16623;53.632;10.016;2022-07-29T03:24:48;12.80;99.90
29713;DHT22;16623;53.632;10.016;2022-07-29T03:27:14;12.90;99.90
29713;DHT22;16623;53.632;10.016;2022-07-29T03:29:39;12.90;99.90
29713;DHT22;16623;53.632;10.016;2022-07-29T03:32:05;12.90;99.90
29713;DHT22;16623;53.632;10.016;2022-07-29T03:34:31;12.90;99.90
29713;DHT22;16623;53.632;10.016;2022-07-29T03:36:56;13.00;99.90
29713;DHT22;16623;53.632;10.016;2022-07-29T03:39:23;13.00;99.90
29713;DHT22;16623;53.632;10.016;2022-07-29T03:41:49;13.00;99.90
29713;DHT22;16623;53.632;10.016;2022-07-29T03:44:17;13.00;99.90
29713;DHT22;16623;53.632;10.016;2022-07-29T03:46:44;13.00;99.90
29713;DHT22;16623;53.632;10.016;2022-07-29T03:49:11;13.10;99.90
29713;DHT22;16623;53.632;10.016;2022-07-29T03:51:37;13.10;99.90
29713;DHT22;16623;53.632;10.016;2022-07-29T03:54:03;13.00;99.90
29713;DHT22;16623;53.632;10.016;2022-07-29T03:56:29;13.10;99.90
29713;DHT22;16623;53.632;10.016;2022-07-29T03:58:54;13.10;99.90
29713;DHT22;16623;53.632;10.016;2022-07-29T04:01:21;13.10;99.90
29713;DHT22;16623;53.632;10.016;2022-07-29T04:03:47;13.20;99.90
29713;DHT22;16623;53.632;10.016;2022-07-29T04:06:13;13.20;99.90
29713;DHT22;16623;53.632;10.016;2022-07-29T04:08:38;13.20;99.90
29713;DHT22;16623;53.632;10.016;2022-07-29T04:11:04;13.30;99.90
29713;DHT22;16623;53.632;10.016;2022-07-29T04:13:30;13.30;99.90
29713;DHT22;16623;53.632;10.016;2022-07-29T04:15:56;13.30;99.90
29713;DHT22;16623;53.632;10.016;2022-07-29T04:18:21;13.40;99.90
29713;DHT22;16623;53.632;10.016;2022-07-29T04:20:47;13.50;99.90
29713;DHT22;16623;53.632;10.016;2022-07-29T04:23:12;13.50;99.90
29713;DHT22;16623;53.632;10.016;2022-07-29T04:25:39;13.50;99.90
29713;DHT22;16623;53.632;10.016;2022-07-29T04:28:05;13.50;99.90
29713;DHT22;16623;53.632;10.016;2022-07-29T04:30:30;13.60;99.90
29713;DHT22;16623;53.632;10.016;2022-07-29T04:32:56;13.70;99.90
29713;DHT22;16623;53.632;10.016;2022-07-29T04:35:22;13.80;99.90
29713;DHT22;16623;53.632;10.016;2022-07-29T04:37:47;13.80;99.90
29713;DHT22;16623;53.632;10.016;2022-07-29T04:40:13;13.70;99.90
29713;DHT22;16623;53.632;10.016;2022-07-29T04:42:39;13.70;99.90
29713;DHT22;16623;53.632;10.016;2022-07-29T04:45:05;13.60;99.90
29713;DHT22;16623;53.632;10.016;2022-07-29T04:47:30;13.50;99.90
29713;DHT22;16623;53.632;10.016;2022-07-29T04:49:56;13.50;99.90
29713;DHT22;16623;53.632;10.016;2022-07-29T04:52:22;13.40;99.90
29713;DHT22;16623;53.632;10.016;2022-07-29T04:54:47;13.40;99.90
29713;DHT22;16623;53.632;10.016;2022-07-29T04:57:13;13.40;99.90
29713;DHT22;16623;53.632;10.016;2022-07-29T04:59:38;13.40;99.90
29713;DHT22;16623;53.632;10.016;2022-07-29T05:02:04;13.40;99.90
29713;DHT22;16623;53.632;10.016;2022-07-29T05:04:29;13.50;99.90
29713;DHT22;16623;53.632;10.016;2022-07-29T05:06:55;13.50;99.90
29713;DHT22;16623;53.632;10.016;2022-07-29T05:09:20;13.50;99.90
29713;DHT22;16623;53.632;10.016;2022-07-29T05:11:45;13.50;99.90
29713;DHT22;16623;53.632;10.016;2022-07-29T05:14:11;13.50;99.90
29713;DHT22;16623;53.632;10.016;2022-07-29T05:16:37;13.50;99.90
29713;DHT22;16623;53.632;10.016;2022-07-29T05:19:04;13.50;99.90
29713;DHT22;16623;53.632;10.016;2022-07-29T05:21:29;13.50;99.90
29713;DHT22;16623;53.632;10.016;2022-07-29T05:23:55;13.60;99.90
29713;DHT22;16623;53.632;10.016;2022-07-29T05:26:20;13.60;99.90
29713;DHT22;16623;53.632;10.016;2022-07-29T05:28:46;13.60;99.90
29713;DHT22;16623;53.632;10.016;2022-07-29T05:31:11;13.80;99.90
29713;DHT22;16623;53.632;10.016;2022-07-29T05:33:37;13.70;99.90
29713;DHT22;16623;53.632;10.016;2022-07-29T05:36:03;13.70;99.90
29713;DHT22;16623;53.632;10.016;2022-07-29T05:38:30;13.70;99.90
29713;DHT22;16623;53.632;10.016;2022-07-29T05:40:56;13.70;99.90
29713;DHT22;16623;53.632;10.016;2022-07-29T05:43:22;13.70;99.90
29713;DHT22;16623;53.632;10.016;2022-07-29T05:45:48;13.80;99.90
29713;DHT22;16623;53.632;10.016;2022-07-29T05:48:13;13.80;99.90
29713;DHT22;16623;53.632;10.016;2022-07-29T05:50:39;13.80;99.90
29713;DHT22;16623;53.632;10.016;2022-07-29T05:53:04;14.00;99.90
29713;DHT22;16623;53.632;10.016;2022-07-29T05:55:29;14.10;99.90
29713;DHT22;16623;53.632;10.016;2022-07-29T05:57:55;14.20;99.90
29713;DHT22;16623;53.632;10.016;2022-07-29T06:00:20;14.20;99.90
29713;DHT22;16623;53.632;10.016;2022-07-29T06:02:46;14.40;99.90
29713;DHT22;16623;53.632;10.016;2022-07-29T06:05:12;14.50;99.90
29713;DHT22;16623;53.632;10.016;2022-07-29T06:07:37;14.50;99.90
29713;DHT22;16623;53.632;10.016;2022-07-29T06:10:03;14.60;99.90
29713;DHT22;16623;53.632;10.016;2022-07-29T06:12:28;14.70;99.90
29713;DHT22;16623;53.632;10.016;2022-07-29T06:14:54;14.70;99.90
29713;DHT22;16623;53.632;10.016;2022-07-29T06:17:19;14.90;99.90
29713;DHT22;16623;53.632;10.016;2022-07-29T06:19:45;15.00;99.90
29713;DHT22;16623;53.632;10.016;2022-07-29T06:22:10;15.20;99.90
29713;DHT22;16623;53.632;10.016;2022-07-29T06:24:36;15.30;99.90
29713;DHT22;16623;53.632;10.016;2022-07-29T06:27:02;15.40;99.90
29713;DHT22;16623;53.632;10.016;2022-07-29T06:29:28;15.50;99.90
29713;DHT22;16623;53.632;10.016;2022-07-29T06:31:53;15.60;99.90
29713;DHT22;16623;53.632;10.016;2022-07-29T06:34:19;15.80;99.90
29713;DHT22;16623;53.632;10.016;2022-07-29T06:36:44;15.90;99.90
29713;DHT22;16623;53.632;10.016;2022-07-29T06:39:10;16.00;99.90
29713;DHT22;16623;53.632;10.016;2022-07-29T06:41:38;16.20;99.90
29713;DHT22;16623;53.632;10.016;2022-07-29T06:44:04;16.30;99.90
29713;DHT22;16623;53.632;10.016;2022-07-29T06:46:29;16.40;99.90
29713;DHT22;16623;53.632;10.016;2022-07-29T06:48:55;16.50;99.90
29713;DHT22;16623;53.632;10.016;2022-07-29T06:51:21;16.60;99.90
29713;DHT22;16623;53.632;10.016;2022-07-29T06:53:46;16.60;99.90
29713;DHT22;16623;53.632;10.016;2022-07-29T06:56:12;16.70;99.90
29713;DHT22;16623;53.632;10.016;2022-07-29T06:58:39;16.80;99.90
29713;DHT22;16623;53.632;10.016;2022-07-29T07:01:05;16.90;99.90
29713;DHT22;16623;53.632;10.016;2022-07-29T07:03:31;17.10;99.90
29713;DHT22;16623;53.632;10.016;2022-07-29T07:05:56;17.20;99.90
29713;DHT22;16623;53.632;10.016;2022-07-29T07:08:22;17.30;99.90
29713;DHT22;16623;53.632;10.016;2022-07-29T07:10:49;17.30;99.90
29713;DHT22;16623;53.632;10.016;2022-07-29T07:13:15;17.40;99.90
29713;DHT22;16623;53.632;10.016;2022-07-29T07:15:42;17.50;99.90
29713;DHT22;16623;53.632;10.016;2022-07-29T07:18:08;17.50;99.90
29713;DHT22;16623;53.632;10.016;2022-07-29T07:20:34;17.60;99.90
29713;DHT22;16623;53.632;10.016;2022-07-29T07:22:59;17.70;99.90
29713;DHT22;16623;53.632;10.016;2022-07-29T07:25:25;17.80;99.90
29713;DHT22;16623;53.632;10.016;2022-07-29T07:27:50;17.80;99.90
29713;DHT22;16623;53.632;10.016;2022-07-29T07:30:16;17.90;99.90
29713;DHT22;16623;53.632;10.016;2022-07-29T07:32:41;18.00;99.90
29713;DHT22;16623;53.632;10.016;2022-07-29T07:35:07;18.10;99.90
29713;DHT22;16623;53.632;10.016;2022-07-29T07:37:33;18.10;99.90
29713;DHT22;16623;53.632;10.016;2022-07-29T07:40:00;18.10;99.90
29713;DHT22;16623;53.632;10.016;2022-07-29T07:42:26;18.20;99.90
29713;DHT22;16623;53.632;10.016;2022-07-29T07:44:51;18.30;99.90
29713;DHT22;16623;53.632;10.016;2022-07-29T07:47:17;18.40;99.90
29713;DHT22;16623;53.632;10.016;2022-07-29T07:49:48;18.40;99.90
29713;DHT22;16623;53.632;10.016;2022-07-29T07:52:14;18.40;99.90
29713;DHT22;16623;53.632;10.016;2022-07-29T07:54:40;18.40;99.90
29713;DHT22;16623;53.632;10.016;2022-07-29T07:57:05;18.50;99.90
29713;DHT22;16623;53.632;10.016;2022-07-29T07:59:31;18.50;99.90
29713;DHT22;16623;53.632;10.016;2022-07-29T08:01:57;18.50;99.90
29713;DHT22;16623;53.632;10.016;2022-07-29T08:04:23;18.60;99.90
29713;DHT22;16623;53.632;10.016;2022-07-29T08:06:48;18.70;99.90
29713;DHT22;16623;53.632;10.016;2022-07-29T08:09:15;18.60;99.90
29713;DHT22;16623;53.632;10.016;2022-07-29T08:11:40;18.60;99.90
29713;DHT22;16623;53.632;10.016;2022-07-29T08:14:06;18.60;99.90
29713;DHT22;16623;53.632;10.016;2022-07-29T08:16:31;18.60;99.90
29713;DHT22;16623;53.632;10.016;2022-07-29T08:18:56;18.60;99.90
29713;DHT22;16623;53.632;10.016;2022-07-29T08:21:23;18.70;99.90
29713;DHT22;16623;53.632;10.016;2022-07-29T08:23:49;18.80;99.90
29713;DHT22;16623;53.632;10.016;2022-07-29T08:26:17;18.80;99.90
29713;DHT22;16623;53.632;10.016;2022-07-29T08:28:43;18.90;99.90
29713;DHT22;16623;53.632;10.016;2022-07-29T08:31:14;19.10;99.90
29713;DHT22;16623;53.632;10.016;2022-07-29T08:33:40;19.20;99.90
29713;DHT22;16623;53.632;10.016;2022-07-29T08:36:06;19.30;99.90
29713;DHT22;16623;53.632;10.016;2022-07-29T08:38:32;19.30;99.90
29713;DHT22;16623;53.632;10.016;2022-07-29T08:40:58;19.30;99.90
29713;DHT22;16623;53.632;10.016;2022-07-29T08:43:23;19.40;99.90
29713;DHT22;16623;53.632;10.016;2022-07-29T08:45:49;19.50;99.90
29713;DHT22;16623;53.632;10.016;2022-07-29T08:48:19;19.70;99.90
29713;DHT22;16623;53.632;10.016;2022-07-29T08:50:46;19.90;99.90
29713;DHT22;16623;53.632;10.016;2022-07-29T08:53:13;19.90;99.90
29713;DHT22;16623;53.632;10.016;2022-07-29T08:55:39;20.10;99.90
29713;DHT22;16623;53.632;10.016;2022-07-29T08:58:06;20.20;99.90
29713;DHT22;16623;53.632;10.016;2022-07-29T09:00:32;20.20;99.90
29713;DHT22;16623;53.632;10.016;2022-07-29T09:02:58;20.20;99.90
29713;DHT22;16623;53.632;10.016;2022-07-29T09:05:24;20.10;99.90
29713;DHT22;16623;53.632;10.016;2022-07-29T09:07:51;20.20;99.90
29713;DHT22;16623;53.632;10.016;2022-07-29T09:10:17;20.30;99.90
29713;DHT22;16623;53.632;10.016;2022-07-29T09:12:42;20.40;99.90
29713;DHT22;16623;53.632;10.016;2022-07-29T09:15:08;20.40;99.90
29713;DHT22;16623;53.632;10.016;2022-07-29T09:17:40;20.50;99.90
29713;DHT22;16623;53.632;10.016;2022-07-29T09:20:10;20.60;99.90
29713;DHT22;16623;53.632;10.016;2022-07-29T09:22:36;20.70;99.90
29713;DHT22;16623;53.632;10.016;2022-07-29T09:25:02;20.80;99.90
29713;DHT22;16623;53.632;10.016;2022-07-29T09:27:27;20.90;99.90
29713;DHT22;16623;53.632;10.016;2022-07-29T09:30:01;21.10;99.90
29713;DHT22;16623;53.632;10.016;2022-07-29T09:32:28;21.30;99.90
29713;DHT22;16623;53.632;10.016;2022-07-29T09:37:42;21.50;99.90
29713;DHT22;16623;53.632;10.016;2022-07-29T09:40:18;21.30;99.90
29713;DHT22;16623;53.632;10.016;2022-07-29T09:42:45;21.20;99.90
29713;DHT22;16623;53.632;10.016;2022-07-29T09:45:10;21.20;99.90
29713;DHT22;16623;53.632;10.016;2022-07-29T09:47:46;21.30;99.90
29713;DHT22;16623;53.632;10.016;2022-07-29T09:50:14;21.40;99.90
29713;DHT22;16623;53.632;10.016;2022-07-29T09:52:47;21.40;99.90
29713;DHT22;16623;53.632;10.016;2022-07-29T09:55:13;21.30;99.90
29713;DHT22;16623;53.632;10.016;2022-07-29T09:57:38;21.30;99.90
29713;DHT22;16623;53.632;10.016;2022-07-29T10:00:05;21.40;99.90
29713;DHT22;16623;53.632;10.016;2022-07-29T10:02:32;21.50;99.90
29713;DHT22;16623;53.632;10.016;2022-07-29T10:04:59;21.60;99.90
29713;DHT22;16623;53.632;10.016;2022-07-29T10:07:24;21.70;99.90
29713;DHT22;16623;53.632;10.016;2022-07-29T10:09:54;21.80;99.90
29713;DHT22;16623;53.632;10.016;2022-07-29T10:12:20;21.90;99.90
29713;DHT22;16623;53.632;10.016;2022-07-29T10:14:45;21.90;99.90
29713;DHT22;16623;53.632;10.016;2022-07-29T10:17:11;22.00;99.90
29713;DHT22;16623;53.632;10.016;2022-07-29T10:19:37;22.10;99.90
29713;DHT22;16623;53.632;10.016;2022-07-29T10:22:06;22.00;99.90
29713;DHT22;16623;53.632;10.016;2022-07-29T10:24:32;22.00;99.90
29713;DHT22;16623;53.632;10.016;2022-07-29T10:26:59;22.20;99.90
29713;DHT22;16623;53.632;10.016;2022-07-29T10:29:25;22.20;99.90
29713;DHT22;16623;53.632;10.016;2022-07-29T10:32:05;22.60;99.90
29713;DHT22;16623;53.632;10.016;2022-07-29T10:37:10;22.30;99.90
29713;DHT22;16623;53.632;10.016;2022-07-29T10:42:17;22.20;99.90
29713;DHT22;16623;53.632;10.016;2022-07-29T10:44:43;22.20;99.90
29713;DHT22;16623;53.632;10.016;2022-07-29T10:47:24;22.30;99.90
29713;DHT22;16623;53.632;10.016;2022-07-29T10:49:56;22.30;99.90
29713;DHT22;16623;53.632;10.016;2022-07-29T10:52:22;22.40;99.90
29713;DHT22;16623;53.632;10.016;2022-07-29T10:54:49;22.50;99.90
29713;DHT22;16623;53.632;10.016;2022-07-29T10:59:52;22.50;99.90
29713;DHT22;16623;53.632;10.016;2022-07-29T11:05:04;22.50;99.90
29713;DHT22;16623;53.632;10.016;2022-07-29T11:07:31;22.50;99.90
29713;DHT22;16623;53.632;10.016;2022-07-29T11:15:03;22.50;99.90
29713;DHT22;16623;53.632;10.016;2022-07-29T11:17:52;22.50;99.90
29713;DHT22;16623;53.632;10.016;2022-07-29T11:23:00;22.60;99.90
29713;DHT22;16623;53.632;10.016;2022-07-29T11:25:26;22.70;99.90
29713;DHT22;16623;53.632;10.016;2022-07-29T11:27:52;22.80;99.90
29713;DHT22;16623;53.632;10.016;2022-07-29T11:30:19;22.90;99.90
29713;DHT22;16623;53.632;10.016;2022-07-29T11:32:45;22.90;99.40
29713;DHT22;16623;53.632;10.016;2022-07-29T11:35:13;23.10;99.70
29713;DHT22;16623;53.632;10.016;2022-07-29T11:37:38;23.10;98.80
29713;DHT22;16623;53.632;10.016;2022-07-29T11:45:02;23.40;99.40
29713;DHT22;16623;53.632;10.016;2022-07-29T11:47:35;23.60;98.20
29713;DHT22;16623;53.632;10.016;2022-07-29T11:50:02;23.70;97.00
29713;DHT22;16623;53.632;10.016;2022-07-29T11:52:36;23.70;96.70
29713;DHT22;16623;53.632;10.016;2022-07-29T11:55:05;23.80;96.30
29713;DHT22;16623;53.632;10.016;2022-07-29T11:57:31;23.80;95.70
29713;DHT22;16623;53.632;10.016;2022-07-29T11:59:59;23.80;96.40
29713;DHT22;16623;53.632;10.016;2022-07-29T12:02:25;23.80;96.20
29713;DHT22;16623;53.632;10.016;2022-07-29T12:05:02;23.80;95.40
29713;DHT22;16623;53.632;10.016;2022-07-29T12:07:32;23.80;95.60
29713;DHT22;16623;53.632;10.016;2022-07-29T12:09:58;23.80;95.20
29713;DHT22;16623;53.632;10.016;2022-07-29T12:12:24;23.80;95.30
29713;DHT22;16623;53.632;10.016;2022-07-29T12:14:50;23.70;95.40
29713;DHT22;16623;53.632;10.016;2022-07-29T12:17:25;23.60;94.50
29713;DHT22;16623;53.632;10.016;2022-07-29T12:19:51;23.70;94.70
29713;DHT22;16623;53.632;10.016;2022-07-29T12:22:33;23.60;94.70
29713;DHT22;16623;53.632;10.016;2022-07-29T12:25:05;23.70;94.90
29713;DHT22;16623;53.632;10.016;2022-07-29T12:27:32;23.80;94.90
29713;DHT22;16623;53.632;10.016;2022-07-29T12:29:58;24.10;94.50
29713;DHT22;16623;53.632;10.016;2022-07-29T12:32:32;24.20;95.00
29713;DHT22;16623;53.632;10.016;2022-07-29T12:34:59;24.50;94.40
29713;DHT22;16623;53.632;10.016;2022-07-29T12:37:24;24.70;92.90
29713;DHT22;16623;53.632;10.016;2022-07-29T12:39:50;24.60;92.60
29713;DHT22;16623;53.632;10.016;2022-07-29T12:42:16;24.70;92.30
29713;DHT22;16623;53.632;10.016;2022-07-29T12:44:49;24.70;92.10
29713;DHT22;16623;53.632;10.016;2022-07-29T12:47:15;24.80;92.10
29713;DHT22;16623;53.632;10.016;2022-07-29T12:49:41;24.80;91.70
29713;DHT22;16623;53.632;10.016;2022-07-29T12:52:26;24.90;92.40
29713;DHT22;16623;53.632;10.016;2022-07-29T12:54:52;25.00;91.50
29713;DHT22;16623;53.632;10.016;2022-07-29T12:57:17;25.20;91.80
29713;DHT22;16623;53.632;10.016;2022-07-29T12:59:43;25.30;90.70
29713;DHT22;16623;53.632;10.016;2022-07-29T13:02:20;25.30;90.10
29713;DHT22;16623;53.632;10.016;2022-07-29T13:04:54;25.30;91.50
29713;DHT22;16623;53.632;10.016;2022-07-29T13:07:23;25.20;91.10
29713;DHT22;16623;53.632;10.016;2022-07-29T13:09:49;24.90;91.80
29713;DHT22;16623;53.632;10.016;2022-07-29T13:12:15;24.80;93.50
29713;DHT22;16623;53.632;10.016;2022-07-29T13:14:41;24.60;94.70
29713;DHT22;16623;53.632;10.016;2022-07-29T13:22:01;24.30;97.30
29713;DHT22;16623;53.632;10.016;2022-07-29T13:24:26;24.40;97.70
29713;DHT22;16623;53.632;10.016;2022-07-29T13:26:52;24.40;97.60
29713;DHT22;16623;53.632;10.016;2022-07-29T13:29:17;24.40;97.80
29713;DHT22;16623;53.632;10.016;2022-07-29T13:31:43;24.40;97.90
29713;DHT22;16623;53.632;10.016;2022-07-29T13:34:08;24.60;98.60
29713;DHT22;16623;53.632;10.016;2022-07-29T13:36:34;24.60;98.70
29713;DHT22;16623;53.632;10.016;2022-07-29T13:39:00;24.60;98.20
29713;DHT22;16623;53.632;10.016;2022-07-29T13:41:28;24.50;97.90
29713;DHT22;16623;53.632;10.016;2022-07-29T13:43:54;24.40;98.20
29713;DHT22;16623;53.632;10.016;2022-07-29T13:46:20;24.30;98.00
29713;DHT22;16623;53.632;10.016;2022-07-29T13:48:45;24.30;98.60
29713;DHT22;16623;53.632;10.016;2022-07-29T13:51:11;24.30;98.60
29713;DHT22;16623;53.632;10.016;2022-07-29T13:53:36;24.40;99.10
29713;DHT22;16623;53.632;10.016;2022-07-29T13:56:03;24.40;99.00
29713;DHT22;16623;53.632;10.016;2022-07-29T13:58:31;24.30;99.30
29713;DHT22;16623;53.632;10.016;2022-07-29T14:00:57;24.20;99.20
29713;DHT22;16623;53.632;10.016;2022-07-29T14:03:22;24.20;99.40
29713;DHT22;16623;53.632;10.016;2022-07-29T14:05:47;24.10;99.30
29713;DHT22;16623;53.632;10.016;2022-07-29T14:08:13;24.00;99.30
29713;DHT22;16623;53.632;10.016;2022-07-29T14:10:38;23.70;99.40
29713;DHT22;16623;53.632;10.016;2022-07-29T14:13:04;23.50;99.50
29713;DHT22;16623;53.632;10.016;2022-07-29T14:15:29;23.40;99.90
29713;DHT22;16623;53.632;10.016;2022-07-29T14:17:55;23.30;99.90
29713;DHT22;16623;53.632;10.016;2022-07-29T14:20:21;23.30;99.90
29713;DHT22;16623;53.632;10.016;2022-07-29T14:22:46;23.20;99.90
29713;DHT22;16623;53.632;10.016;2022-07-29T14:25:12;23.20;99.90
29713;DHT22;16623;53.632;10.016;2022-07-29T14:27:38;23.20;99.90
29713;DHT22;16623;53.632;10.016;2022-07-29T14:30:03;23.10;99.90
29713;DHT22;16623;53.632;10.016;2022-07-29T14:32:29;23.10;99.90
29713;DHT22;16623;53.632;10.016;2022-07-29T14:34:54;23.10;99.90
29713;DHT22;16623;53.632;10.016;2022-07-29T14:37:20;23.00;99.90
29713;DHT22;16623;53.632;10.016;2022-07-29T14:39:45;23.00;99.90
29713;DHT22;16623;53.632;10.016;2022-07-29T14:42:10;23.00;99.90
29713;DHT22;16623;53.632;10.016;2022-07-29T14:44:36;22.90;99.90
29713;DHT22;16623;53.632;10.016;2022-07-29T14:47:01;23.00;99.90
29713;DHT22;16623;53.632;10.016;2022-07-29T14:49:27;22.90;99.90
29713;DHT22;16623;53.632;10.016;2022-07-29T14:51:53;22.80;99.90
29713;DHT22;16623;53.632;10.016;2022-07-29T14:54:18;22.80;99.90
29713;DHT22;16623;53.632;10.016;2022-07-29T14:56:44;22.80;99.90
29713;DHT22;16623;53.632;10.016;2022-07-29T14:59:09;22.90;99.90
29713;DHT22;16623;53.632;10.016;2022-07-29T15:01:35;23.00;99.90
29713;DHT22;16623;53.632;10.016;2022-07-29T15:04:00;23.30;99.90
29713;DHT22;16623;53.632;10.016;2022-07-29T15:06:26;23.40;99.90
29713;DHT22;16623;53.632;10.016;2022-07-29T15:08:52;23.50;99.90
29713;DHT22;16623;53.632;10.016;2022-07-29T15:11:17;23.50;99.90
29713;DHT22;16623;53.632;10.016;2022-07-29T15:13:43;23.60;99.90
29713;DHT22;16623;53.632;10.016;2022-07-29T15:16:09;23.70;99.90
29713;DHT22;16623;53.632;10.016;2022-07-29T15:18:35;23.60;99.90
29713;DHT22;16623;53.632;10.016;2022-07-29T15:21:02;23.60;99.90
29713;DHT22;16623;53.632;10.016;2022-07-29T15:23:28;23.60;99.90
29713;DHT22;16623;53.632;10.016;2022-07-29T15:25:54;23.60;99.90
29713;DHT22;16623;53.632;10.016;2022-07-29T15:28:19;23.50;99.90
29713;DHT22;16623;53.632;10.016;2022-07-29T15:30:45;23.60;99.90
29713;DHT22;16623;53.632;10.016;2022-07-29T15:33:11;23.50;99.90
29713;DHT22;16623;53.632;10.016;2022-07-29T15:35:36;23.40;99.90
29713;DHT22;16623;53.632;10.016;2022-07-29T15:38:02;23.40;99.90
29713;DHT22;16623;53.632;10.016;2022-07-29T15:40:28;23.30;99.90
29713;DHT22;16623;53.632;10.016;2022-07-29T15:42:53;23.30;99.90
29713;DHT22;16623;53.632;10.016;2022-07-29T15:45:19;23.30;99.90
29713;DHT22;16623;53.632;10.016;2022-07-29T15:47:44;23.50;99.90
29713;DHT22;16623;53.632;10.016;2022-07-29T15:50:10;23.50;99.90
29713;DHT22;16623;53.632;10.016;2022-07-29T15:52:40;23.60;99.90
29713;DHT22;16623;53.632;10.016;2022-07-29T15:55:06;23.70;99.90
29713;DHT22;16623;53.632;10.016;2022-07-29T15:57:31;23.70;99.90